createdAt,value
2019-01-16T00:00:21.339Z,0.00
2019-01-16T00:01:21.329Z,0.00
2019-01-16T00:02:21.316Z,0.00
2019-01-16T00:03:21.303Z,0.00
2019-01-16T00:04:21.293Z,0.00
2019-01-16T00:05:21.285Z,0.00
2019-01-16T00:06:21.274Z,0.00
2019-01-16T00:07:21.265Z,0.00
2019-01-16T00:08:21.250Z,0.00
2019-01-16T00:09:21.239Z,0.00
2019-01-16T00:10:21.229Z,0.00
2019-01-16T00:11:21.216Z,0.00
2019-01-16T00:12:21.207Z,0.00
2019-01-16T00:13:21.197Z,0.00
2019-01-16T00:14:21.187Z,0.00
2019-01-16T00:15:21.174Z,0.00
2019-01-16T00:16:21.164Z,0.00
2019-01-16T00:17:21.153Z,0.00
2019-01-16T00:18:21.142Z,0.00
2019-01-16T00:19:21.132Z,0.00
2019-01-16T00:20:21.123Z,0.00
2019-01-16T00:21:21.112Z,0.00
2019-01-16T00:22:21.098Z,0.00
2019-01-16T00:23:21.088Z,0.00
2019-01-16T00:24:21.076Z,0.00
2019-01-16T00:25:21.067Z,0.00
2019-01-16T00:26:21.054Z,0.00
2019-01-16T00:27:21.043Z,0.00
2019-01-16T00:28:21.031Z,0.00
2019-01-16T00:29:21.023Z,0.00
2019-01-16T00:30:21.010Z,0.00
2019-01-16T00:31:21.006Z,0.00
2019-01-16T00:32:20.989Z,0.00
2019-01-16T00:33:20.992Z,0.00
2019-01-16T00:34:20.965Z,0.00
2019-01-16T00:35:20.960Z,0.00
2019-01-16T00:36:20.946Z,0.00
2019-01-16T00:37:20.933Z,0.00
2019-01-16T00:38:20.924Z,0.00
2019-01-16T00:39:20.913Z,0.00
2019-01-16T00:40:20.901Z,0.00
2019-01-16T00:41:20.888Z,0.00
2019-01-16T00:42:20.882Z,0.00
2019-01-16T00:43:20.870Z,0.00
2019-01-16T00:44:20.858Z,0.00
2019-01-16T00:45:20.845Z,0.00
2019-01-16T00:46:20.834Z,0.00
2019-01-16T00:47:20.823Z,0.00
2019-01-16T00:48:24.657Z,0.00
2019-01-16T00:49:20.802Z,0.00
2019-01-16T00:50:20.790Z,0.00
2019-01-16T00:51:20.783Z,0.00
2019-01-16T00:52:20.770Z,0.00
2019-01-16T00:53:20.760Z,0.00
2019-01-16T00:54:20.747Z,0.00
2019-01-16T00:55:20.737Z,0.00
2019-01-16T00:56:20.731Z,0.00
2019-01-16T00:57:20.714Z,0.00
2019-01-16T00:58:20.705Z,0.00
2019-01-16T00:59:20.718Z,0.00
2019-01-16T01:00:20.682Z,0.00
2019-01-16T01:01:20.672Z,0.00
2019-01-16T01:02:20.661Z,0.00
2019-01-16T01:03:20.653Z,0.00
2019-01-16T01:04:20.637Z,0.00
2019-01-16T01:05:20.627Z,0.00
2019-01-16T01:06:20.618Z,0.00
2019-01-16T01:07:20.604Z,0.00
2019-01-16T01:08:20.593Z,0.00
2019-01-16T01:09:20.582Z,0.00
2019-01-16T01:10:20.572Z,0.00
2019-01-16T01:11:20.560Z,0.00
2019-01-16T01:12:20.551Z,0.00
2019-01-16T01:13:20.540Z,0.00
2019-01-16T01:14:20.530Z,0.00
2019-01-16T01:15:20.518Z,0.00
2019-01-16T01:16:20.505Z,0.00
2019-01-16T01:17:20.497Z,0.00
2019-01-16T01:18:20.485Z,0.00
2019-01-16T01:19:20.473Z,0.00
2019-01-16T01:20:20.463Z,0.00
2019-01-16T01:21:20.452Z,0.00
2019-01-16T01:22:20.442Z,0.00
2019-01-16T01:23:20.432Z,0.00
2019-01-16T01:24:20.419Z,0.00
2019-01-16T01:25:20.409Z,0.00
2019-01-16T01:26:20.399Z,0.00
2019-01-16T01:27:20.388Z,0.00
2019-01-16T01:28:20.374Z,0.00
2019-01-16T01:29:20.365Z,0.00
2019-01-16T01:30:20.352Z,0.00
2019-01-16T01:31:20.344Z,0.00
2019-01-16T01:32:20.332Z,0.00
2019-01-16T01:33:20.321Z,0.00
2019-01-16T01:34:21.539Z,0.00
2019-01-16T01:35:20.300Z,0.00
2019-01-16T01:36:20.287Z,0.00
2019-01-16T01:37:20.276Z,0.00
2019-01-16T01:38:20.269Z,0.00
2019-01-16T01:39:20.258Z,0.00
2019-01-16T01:40:20.243Z,0.00
2019-01-16T01:41:20.233Z,0.00
2019-01-16T01:42:20.222Z,0.00
2019-01-16T01:43:20.215Z,0.00
2019-01-16T01:44:20.204Z,0.00
2019-01-16T01:45:20.190Z,0.00
2019-01-16T01:46:20.178Z,0.00
2019-01-16T01:47:20.169Z,0.00
2019-01-16T01:48:20.155Z,0.00
2019-01-16T01:49:20.148Z,0.00
2019-01-16T01:50:20.137Z,0.00
2019-01-16T01:51:20.122Z,0.00
2019-01-16T01:52:20.117Z,0.00
2019-01-16T01:53:20.103Z,0.00
2019-01-16T01:54:20.104Z,0.00
2019-01-16T01:55:20.081Z,0.00
2019-01-16T01:56:20.070Z,0.00
2019-01-16T01:57:20.060Z,0.00
2019-01-16T01:58:20.048Z,0.00
2019-01-16T01:59:20.035Z,0.00
2019-01-16T02:00:20.027Z,0.00
2019-01-16T02:01:20.014Z,0.00
2019-01-16T02:02:20.004Z,0.00
2019-01-16T02:03:19.993Z,0.00
2019-01-16T02:04:19.982Z,0.00
2019-01-16T02:05:19.973Z,0.00
2019-01-16T02:06:19.963Z,0.00
2019-01-16T02:07:19.951Z,0.00
2019-01-16T02:08:19.938Z,0.00
2019-01-16T02:09:19.930Z,0.00
2019-01-16T02:10:19.918Z,0.00
2019-01-16T02:11:19.907Z,0.00
2019-01-16T02:12:19.894Z,0.00
2019-01-16T02:13:19.885Z,0.00
2019-01-16T02:14:19.875Z,0.00
2019-01-16T02:15:19.871Z,0.00
2019-01-16T02:16:19.853Z,0.00
2019-01-16T02:17:19.839Z,0.00
2019-01-16T02:18:19.828Z,0.00
2019-01-16T02:19:19.826Z,0.00
2019-01-16T02:20:19.808Z,0.00
2019-01-16T02:21:19.800Z,0.00
2019-01-16T02:22:19.783Z,0.00
2019-01-16T02:23:19.772Z,0.00
2019-01-16T02:24:19.761Z,0.00
2019-01-16T02:25:19.759Z,0.00
2019-01-16T02:26:19.743Z,0.00
2019-01-16T02:27:19.739Z,0.00
2019-01-16T02:28:19.720Z,0.00
2019-01-16T02:29:19.708Z,0.00
2019-01-16T02:30:19.695Z,0.00
2019-01-16T02:31:19.695Z,0.00
2019-01-16T02:32:19.683Z,0.00
2019-01-16T02:33:19.664Z,0.00
2019-01-16T02:34:19.667Z,0.00
2019-01-16T02:35:19.641Z,0.00
2019-01-16T02:36:19.630Z,0.00
2019-01-16T02:37:19.620Z,0.00
2019-01-16T02:38:19.611Z,0.00
2019-01-16T02:39:19.599Z,0.00
2019-01-16T02:40:19.587Z,0.00
2019-01-16T02:41:19.577Z,0.00
2019-01-16T02:42:19.564Z,0.00
2019-01-16T02:43:19.554Z,0.00
2019-01-16T02:44:19.546Z,0.00
2019-01-16T02:45:19.532Z,0.00
2019-01-16T02:46:19.521Z,0.00
2019-01-16T02:47:19.512Z,0.00
2019-01-16T02:48:19.505Z,0.00
2019-01-16T02:49:19.490Z,0.00
2019-01-16T02:50:19.477Z,0.00
2019-01-16T02:51:19.467Z,0.00
2019-01-16T02:52:19.457Z,0.00
2019-01-16T02:53:19.444Z,0.00
2019-01-16T02:54:19.436Z,0.00
2019-01-16T02:55:19.422Z,0.00
2019-01-16T02:56:19.410Z,0.00
2019-01-16T02:57:19.403Z,0.00
2019-01-16T02:58:19.389Z,0.00
2019-01-16T02:59:19.387Z,0.00
2019-01-16T03:00:19.367Z,0.00
2019-01-16T03:01:19.358Z,0.00
2019-01-16T03:02:19.347Z,0.00
2019-01-16T03:03:19.336Z,0.00
2019-01-16T03:04:19.328Z,0.00
2019-01-16T03:05:19.314Z,0.00
2019-01-16T03:06:19.305Z,0.00
2019-01-16T03:07:19.290Z,0.00
2019-01-16T03:08:19.280Z,0.00
2019-01-16T03:09:19.270Z,0.00
2019-01-16T03:10:19.258Z,0.00
2019-01-16T03:11:19.248Z,0.00
2019-01-16T03:12:19.238Z,0.00
2019-01-16T03:13:19.228Z,0.00
2019-01-16T03:14:19.213Z,0.00
2019-01-16T03:15:19.206Z,0.00
2019-01-16T03:16:19.194Z,0.00
2019-01-16T03:17:19.182Z,0.00
2019-01-16T03:18:19.177Z,0.00
2019-01-16T03:19:19.163Z,0.00
2019-01-16T03:20:19.149Z,0.00
2019-01-16T03:21:19.138Z,0.00
2019-01-16T03:22:19.131Z,0.00
2019-01-16T03:23:19.117Z,0.00
2019-01-16T03:24:19.107Z,0.00
2019-01-16T03:25:19.095Z,0.00
2019-01-16T03:26:19.087Z,0.00
2019-01-16T03:27:19.072Z,0.00
2019-01-16T03:28:19.060Z,0.00
2019-01-16T03:29:19.048Z,0.00
2019-01-16T03:30:19.047Z,0.00
2019-01-16T03:31:19.035Z,0.00
2019-01-16T03:32:19.019Z,0.00
2019-01-16T03:33:19.008Z,0.00
2019-01-16T03:34:18.996Z,0.00
2019-01-16T03:35:18.985Z,0.00
2019-01-16T03:36:18.974Z,0.00
2019-01-16T03:37:18.974Z,0.00
2019-01-16T03:38:18.950Z,0.00
2019-01-16T03:39:18.947Z,0.00
2019-01-16T03:40:18.928Z,0.00
2019-01-16T03:41:18.924Z,0.00
2019-01-16T03:42:18.908Z,0.00
2019-01-16T03:43:18.904Z,0.00
2019-01-16T03:44:18.887Z,0.00
2019-01-16T03:45:18.875Z,0.00
2019-01-16T03:46:18.865Z,0.00
2019-01-16T03:47:18.859Z,0.00
2019-01-16T03:48:18.842Z,0.00
2019-01-16T03:49:18.834Z,0.00
2019-01-16T03:50:18.822Z,0.00
2019-01-16T03:51:18.811Z,0.00
2019-01-16T03:52:18.800Z,0.00
2019-01-16T03:53:18.788Z,0.00
2019-01-16T03:54:18.778Z,0.00
2019-01-16T03:55:18.766Z,0.00
2019-01-16T03:56:18.754Z,0.00
2019-01-16T03:57:18.744Z,0.00
2019-01-16T03:58:18.736Z,0.00
2019-01-16T03:59:18.727Z,0.00
2019-01-16T04:00:18.716Z,0.00
2019-01-16T04:01:18.701Z,0.00
2019-01-16T04:02:18.697Z,0.00
2019-01-16T04:03:18.683Z,0.00
2019-01-16T04:04:18.669Z,0.00
2019-01-16T04:05:18.659Z,0.00
2019-01-16T04:06:18.645Z,0.00
2019-01-16T04:07:18.635Z,0.00
2019-01-16T04:08:18.630Z,0.00
2019-01-16T04:09:18.621Z,0.00
2019-01-16T04:10:18.615Z,0.00
2019-01-16T04:11:18.592Z,0.00
2019-01-16T04:12:18.584Z,0.00
2019-01-16T04:13:18.569Z,0.00
2019-01-16T04:14:18.559Z,0.00
2019-01-16T04:15:18.546Z,0.00
2019-01-16T04:16:18.538Z,0.00
2019-01-16T04:17:18.531Z,0.00
2019-01-16T04:18:18.514Z,0.00
2019-01-16T04:19:21.783Z,0.00
2019-01-16T04:20:18.494Z,0.00
2019-01-16T04:21:18.485Z,0.00
2019-01-16T04:22:18.473Z,0.00
2019-01-16T04:23:18.460Z,0.00
2019-01-16T04:24:18.450Z,0.00
2019-01-16T04:25:18.436Z,0.00
2019-01-16T04:26:18.431Z,0.00
2019-01-16T04:27:18.417Z,0.00
2019-01-16T04:28:18.405Z,0.00
2019-01-16T04:29:18.393Z,0.00
2019-01-16T04:30:18.387Z,0.00
2019-01-16T04:31:18.372Z,0.00
2019-01-16T04:32:18.364Z,0.00
2019-01-16T04:33:18.351Z,0.00
2019-01-16T04:34:18.339Z,0.00
2019-01-16T04:35:18.327Z,0.00
2019-01-16T04:36:18.318Z,0.00
2019-01-16T04:37:18.307Z,0.00
2019-01-16T04:38:18.296Z,0.00
2019-01-16T04:39:18.284Z,0.00
2019-01-16T04:40:18.274Z,0.00
2019-01-16T04:41:18.264Z,0.00
2019-01-16T04:42:18.252Z,0.00
2019-01-16T04:43:18.242Z,0.00
2019-01-16T04:44:18.238Z,0.00
2019-01-16T04:45:18.220Z,0.00
2019-01-16T04:46:18.209Z,0.00
2019-01-16T04:47:18.198Z,0.00
2019-01-16T04:48:18.187Z,0.00
2019-01-16T04:49:18.178Z,0.00
2019-01-16T04:50:18.163Z,0.00
2019-01-16T04:51:18.152Z,0.00
2019-01-16T04:52:18.141Z,0.00
2019-01-16T04:53:18.132Z,0.00
2019-01-16T04:54:18.129Z,0.00
2019-01-16T04:55:18.110Z,0.00
2019-01-16T04:56:18.099Z,0.00
2019-01-16T04:57:18.086Z,0.00
2019-01-16T04:58:18.075Z,0.00
2019-01-16T04:59:18.064Z,0.00
2019-01-16T05:00:18.057Z,0.00
2019-01-16T05:01:18.043Z,0.00
2019-01-16T05:02:18.033Z,0.00
2019-01-16T05:03:18.022Z,0.00
2019-01-16T05:04:18.011Z,0.00
2019-01-16T05:05:18.002Z,0.00
2019-01-16T05:06:17.987Z,0.00
2019-01-16T05:07:17.980Z,0.00
2019-01-16T05:08:17.971Z,0.00
2019-01-16T05:09:17.957Z,0.00
2019-01-16T05:10:17.948Z,0.00
2019-01-16T05:11:17.936Z,0.00
2019-01-16T05:12:17.924Z,0.00
2019-01-16T05:13:17.913Z,0.00
2019-01-16T05:14:17.911Z,0.00
2019-01-16T05:15:17.892Z,0.00
2019-01-16T05:16:17.887Z,0.00
2019-01-16T05:17:17.869Z,0.00
2019-01-16T05:18:17.868Z,0.00
2019-01-16T05:19:17.850Z,0.00
2019-01-16T05:20:17.838Z,0.00
2019-01-16T05:21:17.824Z,0.00
2019-01-16T05:22:17.828Z,0.00
2019-01-16T05:23:17.809Z,0.00
2019-01-16T05:24:17.793Z,0.00
2019-01-16T05:25:17.783Z,0.00
2019-01-16T05:26:17.770Z,0.00
2019-01-16T05:27:17.762Z,0.00
2019-01-16T05:28:17.750Z,0.00
2019-01-16T05:29:17.741Z,0.00
2019-01-16T05:30:17.731Z,0.00
2019-01-16T05:31:17.715Z,0.00
2019-01-16T05:32:17.707Z,0.00
2019-01-16T05:33:17.703Z,0.00
2019-01-16T05:34:17.686Z,0.00
2019-01-16T05:35:17.681Z,0.00
2019-01-16T05:36:17.663Z,0.00
2019-01-16T05:37:17.658Z,0.00
2019-01-16T05:38:17.640Z,0.00
2019-01-16T05:39:17.630Z,0.00
2019-01-16T05:40:17.620Z,0.00
2019-01-16T05:41:17.609Z,0.00
2019-01-16T05:42:17.595Z,0.00
2019-01-16T05:43:17.587Z,0.00
2019-01-16T05:44:17.577Z,0.00
2019-01-16T05:45:17.563Z,0.00
2019-01-16T05:46:17.554Z,0.00
2019-01-16T05:47:17.545Z,0.00
2019-01-16T05:48:17.536Z,0.00
2019-01-16T05:49:17.520Z,0.00
2019-01-16T05:50:17.508Z,0.00
2019-01-16T05:51:17.504Z,0.00
2019-01-16T05:52:17.488Z,0.00
2019-01-16T05:53:17.527Z,0.00
2019-01-16T05:54:17.465Z,0.00
2019-01-16T05:55:17.454Z,0.00
2019-01-16T05:56:17.444Z,0.00
2019-01-16T05:57:17.450Z,0.00
2019-01-16T05:58:17.423Z,0.00
2019-01-16T05:59:17.410Z,0.00
2019-01-16T06:00:17.400Z,0.00
2019-01-16T06:01:17.388Z,0.00
2019-01-16T06:02:17.378Z,0.00
2019-01-16T06:03:17.364Z,0.00
2019-01-16T06:04:17.359Z,0.00
2019-01-16T06:05:17.342Z,0.00
2019-01-16T06:06:17.333Z,0.00
2019-01-16T06:07:17.327Z,0.00
2019-01-16T06:08:17.317Z,0.00
2019-01-16T06:09:17.301Z,0.00
2019-01-16T06:10:17.290Z,0.00
2019-01-16T06:11:17.278Z,0.00
2019-01-16T06:12:17.268Z,0.00
2019-01-16T06:13:17.254Z,0.00
2019-01-16T06:14:17.246Z,0.00
2019-01-16T06:15:17.236Z,0.00
2019-01-16T06:16:17.222Z,0.00
2019-01-16T06:17:17.213Z,0.00
2019-01-16T06:18:17.203Z,0.00
2019-01-16T06:19:17.191Z,0.00
2019-01-16T06:20:17.178Z,0.00
2019-01-16T06:21:17.168Z,0.00
2019-01-16T06:22:17.158Z,0.00
2019-01-16T06:23:17.145Z,0.00
2019-01-16T06:24:17.137Z,0.00
2019-01-16T06:25:17.136Z,0.00
2019-01-16T06:26:17.115Z,0.00
2019-01-16T06:27:17.105Z,0.00
2019-01-16T06:28:17.091Z,0.00
2019-01-16T06:29:17.082Z,0.00
2019-01-16T06:30:17.071Z,0.00
2019-01-16T06:31:17.063Z,0.00
2019-01-16T06:32:17.047Z,0.00
2019-01-16T06:33:17.039Z,0.00
2019-01-16T06:34:17.027Z,0.00
2019-01-16T06:35:17.015Z,0.00
2019-01-16T06:36:17.009Z,0.00
2019-01-16T06:37:16.991Z,0.00
2019-01-16T06:38:16.984Z,0.00
2019-01-16T06:39:16.981Z,0.00
2019-01-16T06:40:16.959Z,0.00
2019-01-16T06:41:16.951Z,0.00
2019-01-16T06:42:16.940Z,0.00
2019-01-16T06:43:16.928Z,0.00
2019-01-16T06:44:16.919Z,0.00
2019-01-16T06:45:16.906Z,0.00
2019-01-16T06:46:16.895Z,0.00
2019-01-16T06:47:16.885Z,0.00
2019-01-16T06:48:16.871Z,0.00
2019-01-16T06:49:16.863Z,0.00
2019-01-16T06:50:16.883Z,0.00
2019-01-16T06:51:16.841Z,0.00
2019-01-16T06:52:16.832Z,0.00
2019-01-16T06:53:16.821Z,0.00
2019-01-16T06:54:16.806Z,0.00
2019-01-16T06:55:16.798Z,0.00
2019-01-16T06:56:16.786Z,0.00
2019-01-16T06:57:16.777Z,0.00
2019-01-16T06:58:16.768Z,0.00
2019-01-16T06:59:16.752Z,4.00
2019-01-16T07:00:16.742Z,4.00
2019-01-16T07:01:16.736Z,4.00
2019-01-16T07:02:16.721Z,4.00
2019-01-16T07:03:16.711Z,4.00
2019-01-16T07:04:16.698Z,4.00
2019-01-16T07:05:16.690Z,0.00
2019-01-16T07:06:16.677Z,4.00
2019-01-16T07:07:16.669Z,4.00
2019-01-16T07:08:16.656Z,4.00
2019-01-16T07:09:16.645Z,8.00
2019-01-16T07:10:16.634Z,4.00
2019-01-16T07:11:16.621Z,8.00
2019-01-16T07:12:16.613Z,8.00
2019-01-16T07:13:16.674Z,12.00
2019-01-16T07:14:16.683Z,12.00
2019-01-16T07:15:16.597Z,16.00
2019-01-16T07:16:16.589Z,16.00
2019-01-16T07:17:16.557Z,16.00
2019-01-16T07:18:16.548Z,20.00
2019-01-16T07:19:16.538Z,20.00
2019-01-16T07:20:16.528Z,24.00
2019-01-16T07:21:16.516Z,28.00
2019-01-16T07:22:16.502Z,28.00
2019-01-16T07:23:16.547Z,32.00
2019-01-16T07:24:16.483Z,36.00
2019-01-16T07:25:16.469Z,40.00
2019-01-16T07:26:16.460Z,36.00
2019-01-16T07:27:16.453Z,40.00
2019-01-16T07:28:16.437Z,44.00
2019-01-16T07:29:16.428Z,44.00
2019-01-16T07:30:16.430Z,52.00
2019-01-16T07:31:16.406Z,52.00
2019-01-16T07:32:16.398Z,52.00
2019-01-16T07:33:16.384Z,60.00
2019-01-16T07:34:16.374Z,60.00
2019-01-16T07:35:16.362Z,64.00
2019-01-16T07:36:16.355Z,64.00
2019-01-16T07:37:16.343Z,68.00
2019-01-16T07:38:16.334Z,76.00
2019-01-16T07:39:16.320Z,80.00
2019-01-16T07:40:16.308Z,88.00
2019-01-16T07:41:16.299Z,96.00
2019-01-16T07:42:16.287Z,104.00
2019-01-16T07:43:16.281Z,108.00
2019-01-16T07:44:16.264Z,116.00
2019-01-16T07:45:16.253Z,128.00
2019-01-16T07:46:16.243Z,136.00
2019-01-16T07:47:16.231Z,144.00
2019-01-16T07:48:16.221Z,156.00
2019-01-16T07:49:16.210Z,160.00
2019-01-16T07:50:17.369Z,160.00
2019-01-16T07:51:16.187Z,168.00
2019-01-16T07:52:16.175Z,176.00
2019-01-16T07:53:16.167Z,184.00
2019-01-16T07:54:16.172Z,192.00
2019-01-16T07:55:16.142Z,204.00
2019-01-16T07:56:16.132Z,220.00
2019-01-16T07:57:16.122Z,240.00
2019-01-16T07:58:16.111Z,252.00
2019-01-16T07:59:21.670Z,268.00
2019-01-16T08:00:16.092Z,284.00
2019-01-16T08:01:16.079Z,296.00
2019-01-16T08:02:16.067Z,300.00
2019-01-16T08:03:16.056Z,300.00
2019-01-16T08:04:16.047Z,308.00
2019-01-16T08:05:16.033Z,312.00
2019-01-16T08:06:16.029Z,312.00
2019-01-16T08:07:16.011Z,316.00
2019-01-16T08:08:16.003Z,328.00
2019-01-16T08:09:15.991Z,344.00
2019-01-16T08:10:15.981Z,372.00
2019-01-16T08:11:15.972Z,392.00
2019-01-16T08:12:15.959Z,412.00
2019-01-16T08:13:15.949Z,424.00
2019-01-16T08:14:15.938Z,440.00
2019-01-16T08:15:15.926Z,468.00
2019-01-16T08:16:15.915Z,496.00
2019-01-16T08:17:15.911Z,536.00
2019-01-16T08:18:15.893Z,584.00
2019-01-16T08:19:15.882Z,612.00
2019-01-16T08:20:15.871Z,636.00
2019-01-16T08:21:15.863Z,656.00
2019-01-16T08:22:15.851Z,660.00
2019-01-16T08:23:15.841Z,648.00
2019-01-16T08:24:15.828Z,640.00
2019-01-16T08:25:15.816Z,648.00
2019-01-16T08:26:15.806Z,680.00
2019-01-16T08:27:15.796Z,692.00
2019-01-16T08:28:15.785Z,700.00
2019-01-16T08:29:15.774Z,712.00
2019-01-16T08:30:15.766Z,736.00
2019-01-16T08:31:15.752Z,764.00
2019-01-16T08:32:15.740Z,804.00
2019-01-16T08:33:15.729Z,840.00
2019-01-16T08:34:15.719Z,856.00
2019-01-16T08:35:15.710Z,848.00
2019-01-16T08:36:15.703Z,840.00
2019-01-16T08:37:15.688Z,840.00
2019-01-16T08:38:15.679Z,828.00
2019-01-16T08:39:15.664Z,816.00
2019-01-16T08:40:15.653Z,808.00
2019-01-16T08:41:15.646Z,792.00
2019-01-16T08:42:15.634Z,780.00
2019-01-16T08:43:15.620Z,784.00
2019-01-16T08:44:15.610Z,820.00
2019-01-16T08:45:15.600Z,856.00
2019-01-16T08:46:15.592Z,848.00
2019-01-16T08:47:15.577Z,828.00
2019-01-16T08:48:15.569Z,804.00
2019-01-16T08:49:15.557Z,780.00
2019-01-16T08:50:15.545Z,788.00
2019-01-16T08:51:15.550Z,764.00
2019-01-16T08:52:15.526Z,692.00
2019-01-16T08:53:15.520Z,620.00
2019-01-16T08:54:15.506Z,560.00
2019-01-16T08:55:15.494Z,512.00
2019-01-16T08:56:15.481Z,472.00
2019-01-16T08:57:15.472Z,456.00
2019-01-16T08:58:15.460Z,464.00
2019-01-16T08:59:15.450Z,484.00
2019-01-16T09:00:15.437Z,512.00
2019-01-16T09:01:15.426Z,528.00
2019-01-16T09:02:15.414Z,548.00
2019-01-16T09:03:15.405Z,576.00
2019-01-16T09:04:15.397Z,592.00
2019-01-16T09:05:15.386Z,612.00
2019-01-16T09:06:15.372Z,644.00
2019-01-16T09:07:15.365Z,652.00
2019-01-16T09:08:15.353Z,664.00
2019-01-16T09:09:15.341Z,716.00
2019-01-16T09:10:15.331Z,776.00
2019-01-16T09:11:15.316Z,804.00
2019-01-16T09:12:15.307Z,804.00
2019-01-16T09:13:15.296Z,776.00
2019-01-16T09:14:15.285Z,752.00
2019-01-16T09:15:15.274Z,756.00
2019-01-16T09:16:15.263Z,792.00
2019-01-16T09:17:15.253Z,840.00
2019-01-16T09:18:15.243Z,872.00
2019-01-16T09:19:15.229Z,868.00
2019-01-16T09:20:15.220Z,852.00
2019-01-16T09:21:15.206Z,844.00
2019-01-16T09:22:15.203Z,856.00
2019-01-16T09:23:15.188Z,852.00
2019-01-16T09:24:15.183Z,824.00
2019-01-16T09:25:15.165Z,824.00
2019-01-16T09:26:15.152Z,864.00
2019-01-16T09:27:15.142Z,908.00
2019-01-16T09:28:15.131Z,932.00
2019-01-16T09:29:15.124Z,932.00
2019-01-16T09:30:15.115Z,924.00
2019-01-16T09:31:15.097Z,944.00
2019-01-16T09:32:15.087Z,972.00
2019-01-16T09:33:15.081Z,1004.00
2019-01-16T09:34:15.065Z,1036.00
2019-01-16T09:35:15.055Z,1064.00
2019-01-16T09:36:15.045Z,1076.00
2019-01-16T09:37:15.034Z,1076.00
2019-01-16T09:38:15.024Z,1080.00
2019-01-16T09:39:15.011Z,1100.00
2019-01-16T09:40:15.000Z,1124.00
2019-01-16T09:41:14.989Z,1124.00
2019-01-16T09:42:14.979Z,1124.00
2019-01-16T09:43:14.968Z,1112.00
2019-01-16T09:44:14.963Z,1104.00
2019-01-16T09:45:14.948Z,1116.00
2019-01-16T09:46:14.936Z,1140.00
2019-01-16T09:47:14.923Z,1156.00
2019-01-16T09:48:14.912Z,1148.00
2019-01-16T09:49:14.950Z,1128.00
2019-01-16T09:50:14.890Z,1136.00
2019-01-16T09:51:14.880Z,1192.00
2019-01-16T09:52:14.869Z,1268.00
2019-01-16T09:53:14.858Z,1308.00
2019-01-16T09:54:14.847Z,1380.00
2019-01-16T09:55:14.836Z,1480.00
2019-01-16T09:56:14.827Z,1292.00
2019-01-16T09:57:14.813Z,1136.00
2019-01-16T09:58:14.802Z,1148.00
2019-01-16T09:59:14.797Z,1208.00
2019-01-16T10:00:14.783Z,1196.00
2019-01-16T10:01:14.773Z,1160.00
2019-01-16T10:02:14.758Z,1188.00
2019-01-16T10:03:14.749Z,1240.00
2019-01-16T10:04:14.737Z,1192.00
2019-01-16T10:05:14.729Z,1180.00
2019-01-16T10:06:14.714Z,1220.00
2019-01-16T10:07:14.708Z,1288.00
2019-01-16T10:08:14.692Z,1376.00
2019-01-16T10:09:14.684Z,1404.00
2019-01-16T10:10:14.672Z,1464.00
2019-01-16T10:11:14.661Z,1552.00
2019-01-16T10:12:14.656Z,1644.00
2019-01-16T10:13:14.641Z,1772.00
2019-01-16T10:14:14.628Z,2100.00
2019-01-16T10:15:14.617Z,2404.00
2019-01-16T10:16:14.609Z,2508.00
2019-01-16T10:17:14.596Z,2788.00
2019-01-16T10:18:14.585Z,3000.00
2019-01-16T10:19:14.571Z,3124.00
2019-01-16T10:20:14.560Z,3244.00
2019-01-16T10:21:14.556Z,3108.00
2019-01-16T10:22:14.539Z,3056.00
2019-01-16T10:23:14.531Z,3308.00
2019-01-16T10:24:14.519Z,3484.00
2019-01-16T10:25:14.505Z,3420.00
2019-01-16T10:26:14.495Z,3204.00
2019-01-16T10:27:14.486Z,3444.00
2019-01-16T10:28:14.474Z,3160.00
2019-01-16T10:29:14.462Z,2652.00
2019-01-16T10:30:14.452Z,2596.00
2019-01-16T10:31:14.442Z,2604.00
2019-01-16T10:32:14.441Z,2460.00
2019-01-16T10:33:14.420Z,2772.00
2019-01-16T10:34:14.409Z,3160.00
2019-01-16T10:35:14.397Z,3060.00
2019-01-16T10:36:14.389Z,2972.00
2019-01-16T10:37:14.382Z,2824.00
2019-01-16T10:38:14.365Z,2648.00
2019-01-16T10:39:14.353Z,2640.00
2019-01-16T10:40:14.343Z,2604.00
2019-01-16T10:41:14.333Z,2144.00
2019-01-16T10:42:14.323Z,1812.00
2019-01-16T10:43:14.312Z,1716.00
2019-01-16T10:44:14.300Z,1768.00
2019-01-16T10:45:14.293Z,1840.00
2019-01-16T10:46:14.281Z,2040.00
2019-01-16T10:47:14.270Z,2188.00
2019-01-16T10:48:14.258Z,2352.00
2019-01-16T10:49:14.247Z,2288.00
2019-01-16T10:50:14.237Z,2196.00
2019-01-16T10:51:14.226Z,2272.00
2019-01-16T10:52:14.214Z,2016.00
2019-01-16T10:53:14.203Z,1872.00
2019-01-16T10:54:14.193Z,1836.00
2019-01-16T10:55:14.190Z,1852.00
2019-01-16T10:56:14.172Z,1960.00
2019-01-16T10:57:14.159Z,2116.00
2019-01-16T10:58:14.149Z,2184.00
2019-01-16T10:59:14.135Z,2328.00
2019-01-16T11:00:14.129Z,2208.00
2019-01-16T11:01:14.115Z,1976.00
2019-01-16T11:02:14.104Z,1928.00
2019-01-16T11:03:14.094Z,2056.00
2019-01-16T11:04:14.082Z,2144.00
2019-01-16T11:05:14.072Z,2060.00
2019-01-16T11:06:14.061Z,2064.00
2019-01-16T11:07:14.050Z,2112.00
2019-01-16T11:08:14.040Z,2144.00
2019-01-16T11:09:14.027Z,2152.00
2019-01-16T11:10:14.019Z,2008.00
2019-01-16T11:11:16.156Z,1932.00
2019-01-16T11:12:13.998Z,1948.00
2019-01-16T11:13:13.987Z,2024.00
2019-01-16T11:14:13.975Z,2032.00
2019-01-16T11:15:13.963Z,1956.00
2019-01-16T11:16:13.953Z,1984.00
2019-01-16T11:17:13.942Z,2012.00
2019-01-16T11:18:13.930Z,1996.00
2019-01-16T11:19:13.926Z,2156.00
2019-01-16T11:20:13.910Z,2136.00
2019-01-16T11:21:13.901Z,2104.00
2019-01-16T11:22:13.886Z,2092.00
2019-01-16T11:23:13.877Z,2032.00
2019-01-16T11:24:13.866Z,2060.00
2019-01-16T11:25:13.856Z,2016.00
2019-01-16T11:26:13.845Z,1844.00
2019-01-16T11:27:13.833Z,1868.00
2019-01-16T11:28:13.826Z,1848.00
2019-01-16T11:29:13.812Z,1892.00
2019-01-16T11:30:13.800Z,1912.00
2019-01-16T11:31:13.790Z,2020.00
2019-01-16T11:32:13.778Z,1956.00
2019-01-16T11:33:13.766Z,1992.00
2019-01-16T11:34:13.756Z,2036.00
2019-01-16T11:35:13.749Z,2020.00
2019-01-16T11:36:13.735Z,2012.00
2019-01-16T11:37:13.725Z,2024.00
2019-01-16T11:38:13.712Z,2036.00
2019-01-16T11:39:13.701Z,2092.00
2019-01-16T11:40:13.692Z,2164.00
2019-01-16T11:41:13.677Z,2212.00
2019-01-16T11:42:13.668Z,2176.00
2019-01-16T11:43:13.658Z,2184.00
2019-01-16T11:44:13.646Z,2272.00
2019-01-16T11:45:13.634Z,2340.00
2019-01-16T11:46:13.625Z,2580.00
2019-01-16T11:47:13.613Z,2864.00
2019-01-16T11:48:13.602Z,3084.00
2019-01-16T11:49:13.592Z,3392.00
2019-01-16T11:50:13.582Z,3552.00
2019-01-16T11:51:18.711Z,3556.00
2019-01-16T11:52:13.570Z,3644.00
2019-01-16T11:53:13.549Z,3568.00
2019-01-16T11:54:13.538Z,3420.00
2019-01-16T11:55:13.536Z,3352.00
2019-01-16T11:56:13.516Z,3352.00
2019-01-16T11:57:13.503Z,3188.00
2019-01-16T11:58:13.498Z,3112.00
2019-01-16T11:59:13.484Z,3040.00
2019-01-16T12:00:13.550Z,2852.00
2019-01-16T12:01:13.459Z,2772.00
2019-01-16T12:02:13.449Z,2724.00
2019-01-16T12:03:13.440Z,2688.00
2019-01-16T12:04:13.427Z,2748.00
2019-01-16T12:05:13.431Z,2800.00
2019-01-16T12:06:13.405Z,2820.00
2019-01-16T12:07:13.394Z,2788.00
2019-01-16T12:08:13.387Z,2728.00
2019-01-16T12:09:13.377Z,2812.00
2019-01-16T12:10:13.361Z,2940.00
2019-01-16T12:11:13.350Z,3056.00
2019-01-16T12:12:13.340Z,3176.00
2019-01-16T12:13:13.329Z,3400.00
2019-01-16T12:14:13.319Z,3484.00
2019-01-16T12:15:13.310Z,3536.00
2019-01-16T12:16:13.295Z,3608.00
2019-01-16T12:17:13.287Z,3596.00
2019-01-16T12:18:13.274Z,3536.00
2019-01-16T12:19:13.264Z,3644.00
2019-01-16T12:20:13.252Z,3672.00
2019-01-16T12:21:13.240Z,3824.00
2019-01-16T12:22:13.233Z,3904.00
2019-01-16T12:23:13.221Z,3788.00
2019-01-16T12:24:13.208Z,3632.00
2019-01-16T12:25:13.199Z,3612.00
2019-01-16T12:26:13.188Z,3508.00
2019-01-16T12:27:13.177Z,3312.00
2019-01-16T12:28:13.165Z,3396.00
2019-01-16T12:29:13.154Z,3504.00
2019-01-16T12:30:13.144Z,3460.00
2019-01-16T12:31:13.134Z,3276.00
2019-01-16T12:32:13.122Z,3152.00
2019-01-16T12:33:13.110Z,3044.00
2019-01-16T12:34:13.104Z,2952.00
2019-01-16T12:35:13.088Z,2868.00
2019-01-16T12:36:13.093Z,2868.00
2019-01-16T12:37:13.071Z,2548.00
2019-01-16T12:38:13.059Z,2228.00
2019-01-16T12:39:13.087Z,2076.00
2019-01-16T12:40:13.035Z,2084.00
2019-01-16T12:41:13.023Z,2240.00
2019-01-16T12:42:13.035Z,2372.00
2019-01-16T12:43:13.002Z,2492.00
2019-01-16T12:44:12.997Z,2548.00
2019-01-16T12:45:12.980Z,2668.00
2019-01-16T12:46:12.972Z,2764.00
2019-01-16T12:47:12.957Z,2800.00
2019-01-16T12:48:12.950Z,2988.00
2019-01-16T12:49:12.966Z,3096.00
2019-01-16T12:50:12.927Z,3256.00